Time;durP1;ratioP1;P1;durP2;ratioP2;P2;SDS_P1;SDS_P2;PMS_P1;PMS_P2;Temp;Humidity;BMP_temperature;BMP_pressure;BME280_temperature;BME280_humidity;BME280_pressure;Samples;Min_cycle;Max_cycle;Signal;HPM_P1;HPM_P2
2021/03/20 00:01:54;;;;;;;11.27;9.98;;;4.20;99.90;;;;;;5057604;28;20215;-80
2021/03/20 00:04:23;;;;;;;11.80;10.60;;;4.20;99.90;;;;;;5040097;28;20258;-80
2021/03/20 00:06:52;;;;;;;11.32;8.60;;;4.30;99.90;;;;;;5023698;28;20204;-80
2021/03/20 00:09:22;;;;;;;10.75;9.73;;;4.30;99.90;;;;;;5039617;28;20606;-80
2021/03/20 00:11:49;;;;;;;11.43;9.70;;;4.30;99.90;;;;;;5023440;28;20193;-79
2021/03/20 00:14:18;;;;;;;11.25;10.05;;;4.50;99.90;;;;;;5039150;28;20207;-80
2021/03/20 00:16:47;;;;;;;12.80;10.15;;;4.30;99.90;;;;;;5023428;28;20226;-80
2021/03/20 00:19:14;;;;;;;13.73;11.20;;;4.20;99.90;;;;;;5057012;28;20600;-80
2021/03/20 00:21:40;;;;;;;11.38;9.32;;;4.20;99.90;;;;;;5056321;28;20219;-80
2021/03/20 00:24:08;;;;;;;13.33;11.30;;;4.40;99.90;;;;;;5056874;28;20577;-79
2021/03/20 00:26:37;;;;;;;11.13;10.10;;;4.30;99.90;;;;;;5057212;28;20419;-79
2021/03/20 00:29:07;;;;;;;13.68;10.32;;;4.30;99.90;;;;;;5057060;28;20310;-80
2021/03/20 00:31:35;;;;;;;11.32;10.23;;;4.50;99.90;;;;;;5056760;28;20203;-79
2021/03/20 00:34:02;;;;;;;11.48;10.27;;;4.50;99.90;;;;;;5039484;28;20184;-80
2021/03/20 00:36:31;;;;;;;11.57;10.38;;;4.60;99.90;;;;;;5039497;28;20180;-79
2021/03/20 00:38:57;;;;;;;11.48;10.35;;;4.40;99.90;;;;;;5039144;28;20636;-80
2021/03/20 00:41:23;;;;;;;11.53;10.17;;;4.50;99.90;;;;;;5039118;28;20196;-80
2021/03/20 00:43:49;;;;;;;10.48;9.48;;;4.50;99.90;;;;;;5056347;28;20474;-80
2021/03/20 00:46:17;;;;;;;11.70;10.20;;;4.80;99.90;;;;;;5056505;28;20203;-79
2021/03/20 00:48:48;;;;;;;10.27;9.27;;;4.10;99.90;;;;;;5039295;28;20457;-80
2021/03/20 00:51:16;;;;;;;11.15;9.55;;;4.50;99.90;;;;;;5039176;28;20278;-79
2021/03/20 00:53:44;;;;;;;12.68;9.85;;;4.60;99.90;;;;;;5038470;28;20267;-80
2021/03/20 00:56:10;;;;;;;11.20;10.10;;;4.50;99.90;;;;;;5056255;28;20195;-79
2021/03/20 00:58:40;;;;;;;15.07;9.17;;;4.60;99.90;;;;;;5056212;28;20196;-80
2021/03/20 01:01:12;;;;;;;13.52;10.52;;;4.70;99.90;;;;;;5056839;28;20456;-80
2021/03/20 01:03:41;;;;;;;11.18;9.23;;;4.70;99.90;;;;;;5056167;28;20627;-79
2021/03/20 01:06:15;;;;;;;9.90;9.00;;;4.60;99.90;;;;;;5056372;28;20223;-80
2021/03/20 01:08:42;;;;;;;9.93;9.00;;;4.60;99.90;;;;;;5022413;28;20183;-79
2021/03/20 01:11:13;;;;;;;11.32;10.23;;;4.10;99.90;;;;;;5055009;28;20212;-80
2021/03/20 01:13:42;;;;;;;12.80;10.00;;;4.60;99.90;;;;;;5055999;28;20261;-80
2021/03/20 01:16:09;;;;;;;10.38;9.38;;;4.50;99.90;;;;;;5056260;28;20263;-80
2021/03/20 01:18:39;;;;;;;12.07;10.07;;;4.00;99.90;;;;;;5056183;28;20212;-79
2021/03/20 01:21:11;;;;;;;10.57;9.27;;;4.40;99.90;;;;;;5056181;28;20266;-80
2021/03/20 01:23:40;;;;;;;11.60;10.25;;;4.50;99.90;;;;;;5056116;28;20184;-79
2021/03/20 01:26:08;;;;;;;10.30;9.20;;;4.50;99.90;;;;;;5055729;28;20169;-79
2021/03/20 01:28:39;;;;;;;12.80;9.25;;;4.10;99.90;;;;;;5038185;28;20183;-79
2021/03/20 01:31:05;;;;;;;9.77;8.68;;;4.40;99.90;;;;;;5054698;28;20196;-79
2021/03/20 01:33:35;;;;;;;9.52;8.30;;;4.50;99.90;;;;;;5055872;28;20184;-79
2021/03/20 01:36:04;;;;;;;8.65;7.90;;;4.50;99.90;;;;;;5037976;28;20249;-79
2021/03/20 01:38:30;;;;;;;9.75;8.75;;;4.40;99.90;;;;;;5055498;28;20176;-79
2021/03/20 01:41:02;;;;;;;8.00;7.35;;;4.20;99.90;;;;;;5038273;28;20200;-79
2021/03/20 01:43:34;;;;;;;8.15;6.97;;;4.30;99.90;;;;;;5054396;28;20235;-79
2021/03/20 01:46:40;;;;;;;9.13;7.03;;;4.00;99.90;;;;;;5038215;28;20323;-79
2021/03/20 01:49:26;;;;;;;7.05;6.45;;;3.90;99.90;;;;;;5037819;28;20699;-80
2021/03/20 01:52:01;;;;;;;11.48;6.32;;;3.90;99.90;;;;;;5055307;28;20177;-79
2021/03/20 01:54:41;;;;;;;7.75;7.05;;;3.90;99.90;;;;;;5055246;28;20198;-79
2021/03/20 01:57:10;;;;;;;6.97;6.25;;;3.70;99.90;;;;;;5054637;28;20178;-80
2021/03/20 01:59:39;;;;;;;7.20;6.50;;;3.80;99.90;;;;;;5037750;28;20278;-79
2021/03/20 02:02:05;;;;;;;6.18;5.68;;;3.60;99.90;;;;;;5054992;28;20188;-79
2021/03/20 02:04:36;;;;;;;5.97;5.47;;;3.60;99.90;;;;;;5055268;28;20271;-79
2021/03/20 02:07:03;;;;;;;5.88;5.38;;;3.10;99.90;;;;;;5021287;28;20207;-80
2021/03/20 02:09:35;;;;;;;6.20;5.70;;;3.40;99.90;;;;;;5054985;28;20701;-80
2021/03/20 02:12:29;;;;;;;6.32;5.82;;;3.40;99.90;;;;;;5037295;28;20204;-79
2021/03/20 02:15:27;;;;;;;7.65;5.45;;;3.40;99.90;;;;;;5037678;28;20222;-79
2021/03/20 02:18:04;;;;;;;7.20;6.50;;;3.50;99.90;;;;;;5041852;28;20192;-79
2021/03/20 02:20:47;;;;;;;5.60;5.10;;;3.20;99.90;;;;;;5037848;28;20172;-79
2021/03/20 02:23:32;;;;;;;5.90;5.43;;;3.40;99.90;;;;;;5055018;28;20196;-79
2021/03/20 02:26:12;;;;;;;5.72;5.05;;;3.10;99.90;;;;;;5055010;28;20196;-79
2021/03/20 02:29:12;;;;;;;5.53;5.10;;;3.20;99.90;;;;;;5037566;28;20188;-79
2021/03/20 02:32:01;;;;;;;5.20;4.85;;;3.20;99.90;;;;;;5011099;28;20278;-79
2021/03/20 02:34:46;;;;;;;4.80;4.50;;;2.90;99.90;;;;;;5024825;28;20266;-79
2021/03/20 02:37:27;;;;;;;5.47;4.88;;;2.50;99.90;;;;;;5054387;28;20168;-80
2021/03/20 02:40:29;;;;;;;5.75;5.25;;;2.90;99.90;;;;;;5036900;28;20199;-80
2021/03/20 02:43:06;;;;;;;5.80;5.38;;;3.10;99.90;;;;;;4992386;28;20229;-79
2021/03/20 02:45:37;;;;;;;5.45;4.95;;;3.00;99.90;;;;;;5029038;28;20519;-80
2021/03/20 02:48:10;;;;;;;6.07;5.50;;;2.80;99.90;;;;;;5017321;28;20610;-79
2021/03/20 02:50:51;;;;;;;5.28;4.80;;;2.60;99.90;;;;;;5017194;28;20200;-79
2021/03/20 02:53:33;;;;;;;5.47;5.07;;;2.80;99.90;;;;;;5037933;28;20218;-79
2021/03/20 02:56:08;;;;;;;6.63;5.10;;;2.50;99.90;;;;;;5054352;28;20174;-79
2021/03/20 02:59:04;;;;;;;6.93;5.00;;;2.10;99.90;;;;;;5054438;28;20310;-79
2021/03/20 03:01:34;;;;;;;5.13;4.82;;;2.50;99.90;;;;;;5032729;28;20191;-79
2021/03/20 03:04:05;;;;;;;5.18;4.78;;;2.60;99.90;;;;;;5020307;28;20186;-79
2021/03/20 03:06:37;;;;;;;5.32;5.03;;;2.40;99.90;;;;;;5036781;28;20168;-79
2021/03/20 03:09:13;;;;;;;5.47;5.03;;;2.00;99.90;;;;;;5036825;28;20176;-79
2021/03/20 03:11:52;;;;;;;5.55;5.15;;;2.40;99.90;;;;;;5053721;28;20648;-79
2021/03/20 03:14:31;;;;;;;5.72;5.22;;;2.40;99.90;;;;;;5036108;28;20206;-79
2021/03/20 03:17:03;;;;;;;5.90;5.50;;;2.20;99.90;;;;;;5053984;28;20175;-79
2021/03/20 03:19:45;;;;;;;5.57;5.05;;;2.20;99.90;;;;;;5036173;28;20183;-80
2021/03/20 03:22:24;;;;;;;6.05;4.93;;;2.30;99.90;;;;;;5053563;28;20203;-79
2021/03/20 03:24:56;;;;;;;5.45;5.00;;;2.20;99.90;;;;;;5035832;28;20190;-79
2021/03/20 03:27:28;;;;;;;5.75;5.32;;;2.10;99.90;;;;;;5036095;28;20195;-80
2021/03/20 03:29:57;;;;;;;6.38;5.10;;;2.10;99.90;;;;;;5036070;28;20562;-79
2021/03/20 03:32:45;;;;;;;5.65;5.15;;;2.10;99.90;;;;;;5053249;28;20184;-80
2021/03/20 03:35:32;;;;;;;5.05;4.55;;;2.30;99.90;;;;;;5036174;28;20187;-80
2021/03/20 03:38:21;;;;;;;4.93;4.53;;;2.20;99.90;;;;;;5036637;28;20273;-79
2021/03/20 03:41:18;;;;;;;5.05;4.65;;;2.00;99.90;;;;;;5036019;28;20228;-80
2021/03/20 03:43:44;;;;;;;4.40;4.10;;;2.20;99.90;;;;;;5031714;28;20281;-79
2021/03/20 03:46:15;;;;;;;5.07;4.68;;;1.50;99.90;;;;;;5016044;28;20200;-79
2021/03/20 03:48:41;;;;;;;5.32;4.93;;;1.70;99.90;;;;;;5032854;28;20234;-79
2021/03/20 03:51:15;;;;;;;5.68;5.20;;;2.00;99.90;;;;;;5033294;28;20219;-79
2021/03/20 03:53:44;;;;;;;6.03;5.25;;;1.90;99.90;;;;;;5039941;28;20278;-80
2021/03/20 03:56:37;;;;;;;5.38;4.97;;;1.90;99.90;;;;;;5053216;28;20191;-79
2021/03/20 03:59:29;;;;;;;6.18;5.45;;;2.10;99.90;;;;;;5053553;28;20202;-79
2021/03/20 04:02:26;;;;;;;5.63;5.18;;;2.00;99.90;;;;;;5053257;28;20589;-79
2021/03/20 04:05:15;;;;;;;5.60;5.13;;;2.00;99.90;;;;;;5040808;28;20545;-79
2021/03/20 04:08:32;;;;;;;5.75;5.25;;;1.70;99.90;;;;;;5015909;28;20206;-79
2021/03/20 04:11:26;;;;;;;5.60;5.03;;;1.60;99.90;;;;;;5010399;28;20226;-79
2021/03/20 04:14:18;;;;;;;6.35;5.28;;;1.70;99.90;;;;;;5028935;28;20194;-79
2021/03/20 04:17:09;;;;;;;5.65;5.32;;;1.50;99.90;;;;;;5031764;28;20242;-79
2021/03/20 04:19:55;;;;;;;5.82;5.35;;;1.60;99.90;;;;;;5053324;28;20171;-79
2021/03/20 04:22:28;;;;;;;6.00;5.43;;;1.00;99.90;;;;;;5035405;28;20278;-79
2021/03/20 04:25:12;;;;;;;5.60;5.10;;;1.60;99.90;;;;;;5053378;28;20276;-79
2021/03/20 04:27:46;;;;;;;4.75;4.35;;;1.00;99.90;;;;;;5035805;28;20216;-79
2021/03/20 04:30:14;;;;;;;5.30;4.80;;;1.70;99.90;;;;;;5035465;28;20229;-79
2021/03/20 04:32:57;;;;;;;4.85;4.55;;;1.60;99.90;;;;;;5052463;28;20178;-79
2021/03/20 04:35:30;;;;;;;5.63;5.13;;;1.60;99.90;;;;;;5035536;28;20167;-79
2021/03/20 04:37:59;;;;;;;5.35;4.90;;;1.40;99.90;;;;;;5052869;28;20262;-79
2021/03/20 04:40:25;;;;;;;5.93;4.90;;;1.40;99.90;;;;;;5053077;28;20176;-79
2021/03/20 04:42:51;;;;;;;6.23;5.30;;;1.40;99.90;;;;;;5052930;28;20246;-79
2021/03/20 04:45:31;;;;;;;6.10;4.70;;;0.80;99.90;;;;;;5036861;28;20490;-80
2021/03/20 04:48:05;;;;;;;6.00;4.55;;;1.40;99.90;;;;;;5056503;28;20169;-80
2021/03/20 04:50:36;;;;;;;5.30;4.80;;;1.40;99.90;;;;;;5056309;28;20644;-79
2021/03/20 04:53:05;;;;;;;6.07;5.57;;;1.30;99.90;;;;;;5056551;28;20179;-80
2021/03/20 04:55:34;;;;;;;6.63;5.20;;;1.40;99.90;;;;;;5056281;28;20453;-79
2021/03/20 04:58:32;;;;;;;5.93;5.32;;;1.20;99.90;;;;;;5056237;28;20191;-79
2021/03/20 05:01:29;;;;;;;6.20;5.22;;;1.30;99.90;;;;;;5036221;28;20671;-78
2021/03/20 05:04:18;;;;;;;8.18;6.95;;;1.30;99.90;;;;;;5016365;28;20218;-79
2021/03/20 05:06:49;;;;;;;8.43;5.90;;;1.00;99.90;;;;;;5036461;28;20201;-78
2021/03/20 05:09:24;;;;;;;6.78;5.70;;;0.70;99.90;;;;;;5036366;28;20188;-78
2021/03/20 05:12:00;;;;;;;6.10;5.50;;;0.50;99.90;;;;;;5036152;28;20185;-79
2021/03/20 05:14:41;;;;;;;7.97;6.70;;;0.90;99.90;;;;;;5051960;28;20298;-78
2021/03/20 05:17:14;;;;;;;8.35;5.90;;;1.10;99.90;;;;;;5056125;28;20161;-79
2021/03/20 05:19:40;;;;;;;9.77;6.90;;;0.50;99.90;;;;;;5056150;28;20174;-78
2021/03/20 05:22:06;;;;;;;9.90;6.70;;;0.80;99.90;;;;;;5056051;28;20539;-78
2021/03/20 05:24:39;;;;;;;5.77;5.30;;;0.80;99.90;;;;;;5055627;28;20524;-79
2021/03/20 05:27:12;;;;;;;6.32;5.43;;;0.50;99.90;;;;;;5038659;28;20523;-78
2021/03/20 05:29:38;;;;;;;6.22;5.72;;;0.70;99.90;;;;;;5055490;28;20207;-78
2021/03/20 05:32:05;;;;;;;6.15;5.10;;;0.40;99.90;;;;;;5055544;28;20824;-79
2021/03/20 05:34:37;;;;;;;6.10;5.60;;;0.60;99.90;;;;;;5055619;28;20241;-78
2021/03/20 05:37:05;;;;;;;6.05;5.07;;;0.20;99.90;;;;;;5054168;28;20205;-79
2021/03/20 05:39:31;;;;;;;5.55;5.00;;;0.70;99.90;;;;;;5019634;28;20189;-77
2021/03/20 05:42:32;;;;;;;6.25;5.75;;;0.90;99.90;;;;;;5035916;28;20197;-78
2021/03/20 05:45:25;;;;;;;5.30;4.70;;;0.90;99.90;;;;;;5053582;28;20279;-79
2021/03/20 05:48:26;;;;;;;5.43;4.93;;;0.70;99.90;;;;;;5047882;28;20195;-78
2021/03/20 05:51:12;;;;;;;4.95;4.65;;;0.70;99.90;;;;;;5048328;28;20221;-78
2021/03/20 05:54:11;;;;;;;5.50;5.00;;;0.70;99.90;;;;;;5049272;28;20687;-78
2021/03/20 05:56:45;;;;;;;8.90;5.60;;;0.70;99.90;;;;;;5030765;28;20182;-78
2021/03/20 05:59:19;;;;;;;6.07;5.50;;;0.30;99.90;;;;;;5051241;28;20172;-78
2021/03/20 06:02:03;;;;;;;5.65;5.15;;;0.80;99.90;;;;;;5052423;28;20170;-78
2021/03/20 06:04:39;;;;;;;5.35;4.95;;;0.90;99.90;;;;;;5053537;28;20182;-78
2021/03/20 06:07:26;;;;;;;6.55;5.88;;;0.90;99.90;;;;;;5052987;28;20642;-78
2021/03/20 06:10:20;;;;;;;6.13;5.38;;;0.90;99.90;;;;;;5053282;28;20250;-78
2021/03/20 06:13:17;;;;;;;5.15;4.65;;;0.90;99.90;;;;;;5018865;28;20460;-78
2021/03/20 06:16:27;;;;;;;7.53;5.85;;;0.80;99.90;;;;;;5033414;28;20224;-78
2021/03/20 06:19:09;;;;;;;6.05;5.40;;;0.80;99.90;;;;;;4972118;28;20591;-78
2021/03/20 06:21:46;;;;;;;5.70;5.15;;;1.10;99.90;;;;;;5027670;28;20202;-77
2021/03/20 06:24:37;;;;;;;6.38;5.75;;;1.10;99.90;;;;;;5044396;28;20244;-78
2021/03/20 06:27:05;;;;;;;5.57;5.07;;;0.90;99.90;;;;;;5053333;28;20175;-78
2021/03/20 06:29:36;;;;;;;6.75;5.20;;;0.80;99.90;;;;;;5052896;28;20189;-78
2021/03/20 06:32:06;;;;;;;5.95;5.40;;;0.90;99.90;;;;;;5052232;28;20186;-79
2021/03/20 06:34:41;;;;;;;6.05;5.50;;;1.10;99.90;;;;;;5020873;28;20535;-79
2021/03/20 06:37:15;;;;;;;6.22;5.63;;;1.20;99.90;;;;;;5040703;28;20260;-79
2021/03/20 06:39:57;;;;;;;6.40;5.80;;;1.00;99.90;;;;;;5052790;28;20278;-78
2021/03/20 06:42:32;;;;;;;7.85;6.38;;;1.10;99.90;;;;;;5033793;28;20684;-80
2021/03/20 06:45:15;;;;;;;5.68;5.18;;;1.30;99.90;;;;;;5051011;28;20221;-81
2021/03/20 06:47:46;;;;;;;5.05;4.65;;;1.20;99.90;;;;;;5052381;28;20192;-79
2021/03/20 06:50:22;;;;;;;5.72;4.82;;;0.70;99.90;;;;;;5052314;28;20308;-79
2021/03/20 06:52:56;;;;;;;5.28;4.78;;;1.00;99.90;;;;;;5052422;28;20178;-79
2021/03/20 06:55:25;;;;;;;7.45;4.88;;;1.10;99.90;;;;;;5032707;28;20171;-78
2021/03/20 06:58:01;;;;;;;6.03;4.60;;;0.80;99.90;;;;;;5015427;28;20179;-78
2021/03/20 07:00:35;;;;;;;6.07;5.50;;;1.10;99.90;;;;;;5015064;28;20265;-79
2021/03/20 07:03:33;;;;;;;6.47;5.80;;;1.30;99.90;;;;;;5032155;28;20176;-78
2021/03/20 07:06:09;;;;;;;6.93;6.10;;;1.30;99.90;;;;;;4983059;28;20544;-79
2021/03/20 07:08:55;;;;;;;8.95;5.68;;;0.90;99.90;;;;;;5031317;28;20215;-79
2021/03/20 07:11:55;;;;;;;7.15;5.97;;;1.10;99.90;;;;;;5032097;28;20306;-79
2021/03/20 07:14:37;;;;;;;6.25;5.75;;;1.10;99.90;;;;;;5031068;28;20194;-79
2021/03/20 07:17:08;;;;;;;7.82;6.82;;;1.80;99.90;;;;;;5031869;28;20184;-78
2021/03/20 07:19:59;;;;;;;8.88;7.50;;;1.80;99.90;;;;;;5031686;28;20168;-79
2021/03/20 07:22:48;;;;;;;9.68;6.88;;;1.70;99.90;;;;;;5031787;28;20192;-79
2021/03/20 07:25:33;;;;;;;8.45;7.63;;;1.90;99.90;;;;;;5052060;28;20537;-79
2021/03/20 07:28:12;;;;;;;8.50;7.60;;;2.00;99.90;;;;;;5034507;28;20236;-78
2021/03/20 07:30:53;;;;;;;7.88;5.93;;;2.10;99.90;;;;;;5052264;28;20226;-78
2021/03/20 07:33:27;;;;;;;6.68;5.00;;;2.00;99.90;;;;;;5017895;28;20206;-78
2021/03/20 07:35:55;;;;;;;7.00;5.88;;;1.80;99.90;;;;;;5052390;28;20205;-78
2021/03/20 07:38:29;;;;;;;6.80;6.20;;;2.00;99.90;;;;;;5052259;28;20236;-79
2021/03/20 07:41:25;;;;;;;5.93;5.32;;;2.10;99.90;;;;;;5052249;28;20257;-79
2021/03/20 07:43:59;;;;;;;6.28;5.78;;;2.00;99.90;;;;;;5035937;28;20222;-79
2021/03/20 07:46:28;;;;;;;5.95;5.35;;;1.70;99.90;;;;;;5049567;28;20193;-79
2021/03/20 07:49:04;;;;;;;6.97;6.38;;;2.10;99.90;;;;;;5039650;28;20208;-82
2021/03/20 07:51:49;;;;;;;6.45;5.80;;;2.10;99.90;;;;;;5035230;28;20220;-82
2021/03/20 07:54:36;;;;;;;5.60;4.90;;;2.00;99.90;;;;;;5042555;28;20233;-82
2021/03/20 07:57:18;;;;;;;7.22;5.43;;;2.20;99.90;;;;;;5017831;28;20660;-82
2021/03/20 07:59:54;;;;;;;6.22;5.72;;;1.80;99.90;;;;;;5018218;28;20203;-83
2021/03/20 08:02:43;;;;;;;6.25;5.68;;;2.30;99.90;;;;;;5017636;28;20203;-83
2021/03/20 08:05:21;;;;;;;9.38;6.00;;;2.50;99.90;;;;;;5018109;28;20237;-82
2021/03/20 08:07:55;;;;;;;6.60;5.80;;;2.10;99.90;;;;;;5034632;28;20211;-82
2021/03/20 08:10:34;;;;;;;5.93;5.32;;;2.40;99.90;;;;;;5033902;28;20199;-83
2021/03/20 08:13:13;;;;;;;6.28;5.30;;;2.60;99.90;;;;;;5049540;28;20203;-83
2021/03/20 08:15:44;;;;;;;7.75;6.13;;;3.00;99.90;;;;;;5032443;28;20539;-83
2021/03/20 08:18:31;;;;;;;6.10;5.50;;;3.10;99.90;;;;;;5032287;28;20186;-82
2021/03/20 08:21:15;;;;;;;10.88;6.15;;;3.30;99.90;;;;;;5054250;28;20522;-82
2021/03/20 08:24:24;;;;;;;6.63;6.13;;;3.70;99.90;;;;;;5036296;28;20218;-82
2021/03/20 08:27:08;;;;;;;6.05;5.45;;;3.60;99.90;;;;;;5036676;28;20200;-82
2021/03/20 08:30:14;;;;;;;6.10;5.55;;;4.00;99.90;;;;;;5048372;28;20191;-83
2021/03/20 08:32:50;;;;;;;6.55;5.68;;;4.10;99.90;;;;;;5036447;28;20191;-82
2021/03/20 08:35:32;;;;;;;7.38;6.75;;;4.20;99.30;;;;;;5053978;28;20549;-82
2021/03/20 08:38:31;;;;;;;8.07;6.80;;;4.30;98.90;;;;;;5028526;28;20196;-83
2021/03/20 08:41:28;;;;;;;6.10;5.60;;;4.60;98.10;;;;;;5036231;28;20248;-82
2021/03/20 08:44:39;;;;;;;6.93;5.80;;;4.40;96.40;;;;;;5048676;28;20247;-82
2021/03/20 08:47:07;;;;;;;8.10;7.50;;;4.70;96.40;;;;;;5043531;28;20196;-82
2021/03/20 08:49:47;;;;;;;7.35;6.72;;;4.90;95.70;;;;;;5036018;28;20203;-83
2021/03/20 08:52:39;;;;;;;5.93;5.45;;;5.00;95.60;;;;;;5036661;28;20204;-83
2021/03/20 08:55:29;;;;;;;5.80;5.30;;;5.30;95.60;;;;;;5035605;28;20255;-83
2021/03/20 08:58:31;;;;;;;8.63;8.02;;;5.40;93.80;;;;;;5036262;28;20196;-83
2021/03/20 09:01:22;;;;;;;6.55;5.97;;;5.50;93.70;;;;;;5030985;28;20211;-82
2021/03/20 09:03:55;;;;;;;5.72;5.32;;;5.80;91.90;;;;;;5036231;28;21081;-83
2021/03/20 09:06:50;;;;;;;8.05;6.82;;;5.80;91.00;;;;;;5053787;28;20199;-83
2021/03/20 09:09:43;;;;;;;5.93;5.40;;;5.70;89.70;;;;;;5045603;28;20207;-83
2021/03/20 09:12:24;;;;;;;6.00;5.70;;;5.90;89.70;;;;;;5036248;28;20200;-82
2021/03/20 09:14:55;;;;;;;7.00;6.40;;;5.90;88.50;;;;;;5050899;28;20283;-83
2021/03/20 09:17:29;;;;;;;5.68;5.38;;;5.90;86.00;;;;;;5035395;28;20410;-83
2021/03/20 09:20:14;;;;;;;7.00;6.40;;;6.00;86.20;;;;;;5034550;28;20188;-83
2021/03/20 09:22:45;;;;;;;6.65;6.25;;;6.20;85.00;;;;;;5053141;28;20192;-83
2021/03/20 09:25:35;;;;;;;8.82;6.68;;;6.30;83.30;;;;;;5034707;28;20199;-83
2021/03/20 09:28:13;;;;;;;6.82;6.22;;;6.50;87.40;;;;;;5044562;28;20239;-83
2021/03/20 09:30:50;;;;;;;6.13;5.70;;;6.50;85.80;;;;;;5019016;28;20217;-83
2021/03/20 09:33:28;;;;;;;6.60;6.00;;;6.80;86.40;;;;;;5054364;28;20195;-83
2021/03/20 09:35:56;;;;;;;7.15;5.28;;;7.10;83.60;;;;;;5053844;28;20222;-83
2021/03/20 09:38:53;;;;;;;5.78;5.38;;;7.40;84.80;;;;;;5054327;28;20199;-83
2021/03/20 09:41:19;;;;;;;5.73;5.23;;;7.50;82.50;;;;;;5034772;28;20659;-82
2021/03/20 09:44:14;;;;;;;6.10;5.80;;;7.30;80.90;;;;;;5052513;28;20468;-83
2021/03/20 09:46:44;;;;;;;6.30;5.83;;;7.50;81.40;;;;;;5036228;28;20813;-83
2021/03/20 09:49:13;;;;;;;6.80;6.10;;;7.50;78.00;;;;;;5036050;28;20867;-83
2021/03/20 09:51:53;;;;;;;6.55;6.05;;;7.60;75.10;;;;;;5036534;28;20473;-83
2021/03/20 09:54:24;;;;;;;6.70;6.20;;;7.50;72.60;;;;;;5054151;28;20217;-83
2021/03/20 09:57:11;;;;;;;5.57;5.17;;;7.60;73.50;;;;;;5029039;28;20829;-83
2021/03/20 09:59:42;;;;;;;6.00;5.60;;;7.70;71.50;;;;;;5054032;28;20441;-83
2021/03/20 10:02:13;;;;;;;6.73;6.23;;;8.00;70.50;;;;;;5020189;28;20456;-83
2021/03/20 10:05:06;;;;;;;5.82;5.43;;;8.00;67.00;;;;;;5036898;28;20432;-82
2021/03/20 10:07:55;;;;;;;6.33;5.83;;;7.80;66.30;;;;;;5012074;28;20626;-83
2021/03/20 10:10:23;;;;;;;7.73;5.87;;;7.90;69.50;;;;;;5036274;28;20784;-83
2021/03/20 10:12:49;;;;;;;6.93;6.47;;;8.00;66.10;;;;;;5035688;28;20431;-83
2021/03/20 10:15:28;;;;;;;5.67;5.23;;;7.90;65.50;;;;;;5036072;28;20442;-83
2021/03/20 10:18:07;;;;;;;6.33;5.93;;;8.20;67.60;;;;;;5053473;28;20498;-83
2021/03/20 10:20:44;;;;;;;5.90;5.50;;;8.20;61.50;;;;;;5028588;28;21320;-83
2021/03/20 10:23:41;;;;;;;6.90;6.30;;;8.30;59.80;;;;;;5033029;28;20441;-83
2021/03/20 10:26:21;;;;;;;6.20;5.80;;;8.50;58.40;;;;;;5045955;28;20420;-83
2021/03/20 10:28:55;;;;;;;6.77;6.37;;;8.50;58.40;;;;;;5035971;28;20436;-83
2021/03/20 10:31:22;;;;;;;6.47;5.97;;;8.70;57.50;;;;;;5035545;28;20502;-83
2021/03/20 10:33:59;;;;;;;5.80;5.30;;;8.80;56.80;;;;;;5036853;28;20508;-83
2021/03/20 10:36:34;;;;;;;7.10;6.70;;;8.90;57.80;;;;;;5054527;28;20510;-83
2021/03/20 10:39:17;;;;;;;6.00;5.60;;;8.70;53.90;;;;;;5053137;28;20431;-82
2021/03/20 10:41:47;;;;;;;6.40;5.90;;;8.60;55.40;;;;;;5035986;28;20451;-83
2021/03/20 10:44:31;;;;;;;7.00;6.60;;;8.60;56.90;;;;;;5052081;28;20495;-83
2021/03/20 10:47:34;;;;;;;6.47;5.87;;;8.40;55.30;;;;;;5035205;28;20447;-83
2021/03/20 10:50:08;;;;;;;6.13;5.70;;;8.20;53.90;;;;;;5023471;28;20490;-83
2021/03/20 10:52:42;;;;;;;7.40;6.80;;;8.30;54.10;;;;;;5053483;28;20432;-83
2021/03/20 10:55:29;;;;;;;5.90;5.40;;;8.30;53.10;;;;;;5054935;28;21064;-83
2021/03/20 10:58:02;;;;;;;6.33;5.93;;;8.50;53.20;;;;;;5053350;28;20443;-83
2021/03/20 11:00:44;;;;;;;6.50;6.00;;;8.40;49.20;;;;;;5036948;28;20439;-83
2021/03/20 11:03:13;;;;;;;10.10;5.97;;;8.60;47.50;;;;;;5052433;28;20531;-82
2021/03/20 11:05:41;;;;;;;6.47;6.03;;;8.80;45.80;;;;;;5036362;28;20981;-83
2021/03/20 11:08:21;;;;;;;6.93;6.43;;;9.00;43.90;;;;;;5053545;28;20428;-83
2021/03/20 11:11:16;;;;;;;6.80;6.30;;;8.80;43.60;;;;;;5053559;28;20513;-83
2021/03/20 11:13:47;;;;;;;6.27;5.80;;;8.70;46.70;;;;;;5038020;28;20460;-83
2021/03/20 11:16:40;;;;;;;7.07;6.57;;;8.60;46.00;;;;;;5036484;28;20434;-83
2021/03/20 11:19:26;;;;;;;6.30;5.90;;;8.70;47.90;;;;;;5036762;28;20546;-84
2021/03/20 11:22:01;;;;;;;6.20;5.70;;;8.80;48.20;;;;;;5036242;28;20424;-84
2021/03/20 11:24:32;;;;;;;6.10;5.60;;;9.20;49.30;;;;;;5036098;28;20502;-83
2021/03/20 11:27:37;;;;;;;6.23;5.83;;;9.30;48.20;;;;;;5033051;28;20816;-84
2021/03/20 11:30:07;;;;;;;7.17;6.60;;;9.50;46.80;;;;;;5046040;28;20469;-84
2021/03/20 11:32:41;;;;;;;6.10;5.80;;;9.40;44.50;;;;;;5053403;28;20517;-83
2021/03/20 11:35:18;;;;;;;5.40;5.00;;;9.20;41.00;;;;;;5036368;28;20496;-84
2021/03/20 11:37:50;;;;;;;6.10;5.60;;;9.30;39.10;;;;;;5015911;28;20750;-83
2021/03/20 11:40:39;;;;;;;5.93;5.63;;;9.60;39.30;;;;;;5049313;28;20855;-83
2021/03/20 11:43:25;;;;;;;6.30;5.90;;;9.80;39.00;;;;;;5052759;28;20528;-83
2021/03/20 11:46:08;;;;;;;6.80;6.40;;;9.70;39.30;;;;;;5049340;28;20422;-83
2021/03/20 11:48:56;;;;;;;6.47;6.17;;;9.80;40.50;;;;;;5053601;28;20427;-83
2021/03/20 11:51:46;;;;;;;6.60;6.20;;;9.90;38.70;;;;;;5052971;28;20497;-83
2021/03/20 11:54:41;;;;;;;5.97;5.63;;;9.90;40.60;;;;;;5032588;28;20434;-84
2021/03/20 11:57:23;;;;;;;7.30;6.60;;;10.00;40.30;;;;;;5063453;28;20491;-83
2021/03/20 11:59:52;;;;;;;6.10;5.80;;;10.10;39.70;;;;;;5070094;28;20514;-83
2021/03/20 12:02:24;;;;;;;7.00;6.10;;;9.80;40.50;;;;;;5040138;28;20511;-83
2021/03/20 12:05:27;;;;;;;6.93;6.53;;;9.20;40.50;;;;;;5057146;28;20444;-83
2021/03/20 12:08:23;;;;;;;5.97;5.67;;;9.00;40.60;;;;;;4975943;28;20432;-83
2021/03/20 12:11:01;;;;;;;6.30;5.97;;;9.10;39.40;;;;;;5055717;28;20801;-84
2021/03/20 12:13:43;;;;;;;6.70;6.40;;;9.10;40.60;;;;;;5056796;28;20510;-84
2021/03/20 12:16:33;;;;;;;7.60;7.10;;;9.10;40.60;;;;;;5056854;28;20446;-83
2021/03/20 12:19:13;;;;;;;6.07;5.70;;;9.10;38.90;;;;;;5056785;28;20827;-83
2021/03/20 12:22:03;;;;;;;7.03;6.53;;;9.50;38.60;;;;;;5056489;28;20444;-83
2021/03/20 12:24:58;;;;;;;7.20;6.70;;;9.50;41.10;;;;;;5057032;28;20467;-84
2021/03/20 12:27:40;;;;;;;6.13;5.73;;;9.60;39.20;;;;;;5057031;28;20737;-84
2021/03/20 12:30:26;;;;;;;6.37;5.93;;;9.60;41.20;;;;;;5051344;28;20465;-84
2021/03/20 12:33:14;;;;;;;6.90;6.37;;;9.70;42.40;;;;;;5057113;28;20409;-84
2021/03/20 12:35:47;;;;;;;18.10;15.03;;;9.60;42.90;;;;;;5035831;28;20418;-83
2021/03/20 12:38:21;;;;;;;8.40;7.90;;;9.30;42.10;;;;;;5019949;28;20461;-84
2021/03/20 12:41:01;;;;;;;6.33;5.83;;;9.20;43.00;;;;;;5052010;28;20449;-84
2021/03/20 12:43:38;;;;;;;7.00;6.40;;;9.20;45.00;;;;;;5028207;28;20491;-84
2021/03/20 12:46:12;;;;;;;6.73;6.03;;;9.40;45.50;;;;;;5056561;28;20441;-84
2021/03/20 12:48:40;;;;;;;6.37;5.97;;;9.40;44.10;;;;;;5039457;28;20495;-84
2021/03/20 12:51:19;;;;;;;7.10;6.40;;;9.50;45.10;;;;;;5056559;28;20497;-84
2021/03/20 12:53:47;;;;;;;7.97;7.50;;;9.80;44.90;;;;;;5056317;28;20768;-83
2021/03/20 12:56:18;;;;;;;7.30;6.60;;;10.00;43.50;;;;;;5038568;28;20437;-83
2021/03/20 12:58:47;;;;;;;7.60;7.00;;;9.80;43.60;;;;;;5035342;28;20523;-84
2021/03/20 13:01:23;;;;;;;6.20;5.80;;;9.90;43.70;;;;;;5036366;28;20401;-83
2021/03/20 13:03:51;;;;;;;6.80;6.37;;;10.20;43.20;;;;;;5048044;28;20418;-83
2021/03/20 13:06:20;;;;;;;6.20;5.80;;;10.30;43.30;;;;;;5054673;28;20442;-83
2021/03/20 13:08:53;;;;;;;7.13;6.57;;;10.10;43.50;;;;;;5055849;28;20422;-83
2021/03/20 13:11:25;;;;;;;6.60;6.30;;;10.10;43.70;;;;;;5038879;28;20511;-83
2021/03/20 13:13:51;;;;;;;7.30;6.70;;;10.00;42.20;;;;;;5037707;28;20771;-84
2021/03/20 13:16:20;;;;;;;7.43;6.73;;;10.10;43.50;;;;;;5056027;28;20426;-84
2021/03/20 13:18:48;;;;;;;6.80;6.20;;;10.00;43.70;;;;;;5035096;28;20459;-83
2021/03/20 13:21:20;;;;;;;6.10;5.70;;;10.10;44.70;;;;;;5035988;28;20430;-84
2021/03/20 13:23:49;;;;;;;7.50;6.90;;;10.20;42.10;;;;;;5053434;28;20453;-84
2021/03/20 13:26:19;;;;;;;6.43;6.03;;;10.00;40.80;;;;;;5038248;28;20425;-84
2021/03/20 13:28:47;;;;;;;6.77;6.37;;;10.10;43.40;;;;;;5034972;28;20430;-83
2021/03/20 13:31:16;;;;;;;7.77;7.10;;;10.20;42.00;;;;;;5035200;28;20517;-83
2021/03/20 13:33:46;;;;;;;10.37;6.90;;;10.30;43.30;;;;;;5041955;28;20422;-83
2021/03/20 13:36:19;;;;;;;9.27;8.53;;;10.30;44.70;;;;;;5034275;28;20507;-84
2021/03/20 13:38:51;;;;;;;7.87;6.93;;;10.40;44.80;;;;;;5019635;28;20905;-83
2021/03/20 13:41:19;;;;;;;6.37;5.97;;;10.50;44.70;;;;;;5053284;28;20841;-83
2021/03/20 13:43:53;;;;;;;7.10;6.60;;;10.50;44.60;;;;;;5044171;28;20854;-83
2021/03/20 13:46:24;;;;;;;8.27;7.47;;;10.50;44.00;;;;;;5035494;28;20434;-84
2021/03/20 13:49:03;;;;;;;7.67;7.03;;;10.40;43.20;;;;;;5040182;28;20441;-83
2021/03/20 13:51:30;;;;;;;8.30;7.60;;;10.50;46.60;;;;;;5037741;28;20481;-83
2021/03/20 13:54:00;;;;;;;7.63;7.03;;;10.70;45.70;;;;;;5037073;28;20773;-83